Terminal Aerodrome Forecast
Issued by NWS

Home | Current Version | Previous Version | Text Only | Print | Product List | Glossary On
Versions: 1 2 3 4 5 6 7 8 9 10 11 12 13 14 15 16 17 18 19 20 21
000
FTUS41 KALY 241322 AAA
TAFPSF
TAF AMD
KPSF 241322Z 2413/2512 00000KT 1 1/2SM BR SCT002 OVC070
      TEMPO 2413/2415 1/2SM FG VV002
     FM241600 19006KT P6SM VCSH BKN015 OVC025
     FM242000 19008G15KT P6SM SCT015 BKN045
     FM250300 20008KT P6SM OVC015
     FM250800 17004KT 2SM BR OVC008=

USA.gov is the U.S. government's official web portal to all federal, state and local government web resources and services.